Santa Paula, CA

12:13 AM PDT on October 31, 2014 (GMT -0700)
Camarillo | Change Station
CLOSE
Current Station
Airport
Location: Camarillo,
Elevation: 75 ft
Nearby Weather Stations
Active Advisory: Special Statement

Elev 75 ft 34.21 °N, 119.09 °W | Updated 18 minutes ago

Clear
Clear
60 °F
Feels Like 60 °F
N
7
Wind Variable Wind from ENE

Today
High -- | Low -- °F
--% Chance of Precip.
Yesterday
High -- | Low -- °F
Precip. -- in
7:15 AM 6:03 PM
First Quarter, 52% visible
Pressure 29.98 in
Visibility 10.0 miles
Clouds Clear
Dew Point 54 °F
Humidity 80%
Rainfall 0.00 in
Snow Depth Not available.
UV 0 out of 12
Pollen 3.80 out of 12
Air Quality Not available.
Flu Activity Not available.
METAR KCMA 310655Z AUTO 06006KT 10SM CLR 16/12 A2995 RMK AO2 SLP151 T01560122

More Conditions Fewer Conditions

Pressure 29.98 in
Visibility 10.0 miles
Clouds Clear
Dew Point 54 °F
Humidity 80%
Rainfall 0.00 in
Snow Depth Not available.
UV 0 out of 12
Pollen 3.80 out of 12
Air Quality Not available.
Flu Activity Not available.
METAR KCMA 310655Z AUTO 06006KT 10SM CLR 16/12 A2995 RMK AO2 SLP151 T01560122

More Conditions Fewer Conditions

10-Day Weather Forecast

Almanac

Astronomy

Oct. 31, 2014 Rise Set
Actual Time
Civil Twilight
Nautical Twilight
Astronomical Twilight
Moon
Length of Visible Light
Length of Day
Tomorrow will be .
, % of the Moon is Illuminated

Today's Extremes

State Highs State Lows

Community

WunderPhotos

Upload Photos

1,766,571 photos uploaded!

WunderBlogs® & News

Nearby

Air Quality

  Air Quality AQ Index Pollutant
Not available.

Snow Depth

Station Depth Elevation

Earthquake Activity

City Distance Mag. Time & Date
Minimum magnitude displayed is 2.5.

Coastal Water Temperatures

Place Temperature

Nearby Weather Stations